createdAt,value
2019-05-06T00:00:20.570Z,3.74
2019-05-06T00:02:26.956Z,3.70
2019-05-06T00:04:34.109Z,3.63
2019-05-06T00:06:43.883Z,3.59
2019-05-06T00:08:49.836Z,3.53
2019-05-06T00:10:56.315Z,3.48
2019-05-06T00:13:04.610Z,3.44
2019-05-06T00:15:11.214Z,3.40
2019-05-06T00:17:17.751Z,3.38
2019-05-06T00:19:24.680Z,3.33
2019-05-06T00:21:32.157Z,3.31
2019-05-06T00:23:45.970Z,3.27
2019-05-06T00:25:53.546Z,3.24
2019-05-06T00:28:19.552Z,3.21
2019-05-06T00:30:26.004Z,3.16
2019-05-06T00:32:34.670Z,3.14
2019-05-06T00:34:40.457Z,3.11
2019-05-06T00:36:46.915Z,3.10
2019-05-06T00:38:54.949Z,3.08
2019-05-06T00:41:04.026Z,3.08
2019-05-06T00:43:11.579Z,3.07
2019-05-06T00:45:18.036Z,3.07
2019-05-06T00:47:25.235Z,3.06
2019-05-06T00:49:31.650Z,3.07
2019-05-06T00:51:38.039Z,3.08
2019-05-06T00:53:49.932Z,3.08
2019-05-06T00:55:56.333Z,3.07
2019-05-06T00:58:04.061Z,3.06
2019-05-06T01:00:13.466Z,3.03
2019-05-06T01:02:19.507Z,3.03
2019-05-06T01:04:25.877Z,3.01
2019-05-06T01:06:34.481Z,3.01
2019-05-06T01:08:40.628Z,2.97
2019-05-06T01:10:47.756Z,2.93
2019-05-06T01:13:04.082Z,2.92
2019-05-06T01:15:23.789Z,2.90
2019-05-06T01:17:34.678Z,2.87
2019-05-06T01:19:41.312Z,2.83
2019-05-06T01:21:47.861Z,2.80
2019-05-06T01:23:54.609Z,2.75
2019-05-06T01:26:01.058Z,2.71
2019-05-06T01:28:07.474Z,2.65
2019-05-06T01:30:15.536Z,2.61
2019-05-06T01:32:23.637Z,2.59
2019-05-06T01:34:30.220Z,2.56
2019-05-06T01:36:36.595Z,2.54
2019-05-06T01:38:44.758Z,2.52
2019-05-06T01:41:03.874Z,2.49
2019-05-06T01:43:14.539Z,2.46
2019-05-06T01:45:21.105Z,2.44
2019-05-06T01:47:27.923Z,2.41
2019-05-06T01:49:34.290Z,2.38
2019-05-06T01:51:40.665Z,2.34
2019-05-06T01:53:47.314Z,2.31
2019-05-06T01:55:54.596Z,2.29
2019-05-06T01:58:01.066Z,2.28
2019-05-06T02:00:09.348Z,2.28
2019-05-06T02:02:15.865Z,2.27
2019-05-06T02:04:24.296Z,2.28
2019-05-06T02:06:30.505Z,2.27
2019-05-06T02:08:36.896Z,2.25
2019-05-06T02:10:43.606Z,2.24
2019-05-06T02:12:50.260Z,2.22
2019-05-06T02:14:56.646Z,2.21
2019-05-06T02:17:03.632Z,2.22
2019-05-06T02:19:10.366Z,2.23
2019-05-06T02:21:28.775Z,2.22
2019-05-06T02:23:39.556Z,2.22
2019-05-06T02:25:47.659Z,2.21
2019-05-06T02:27:54.239Z,2.21
2019-05-06T02:30:05.474Z,2.19
2019-05-06T02:32:25.252Z,2.20
2019-05-06T02:34:36.458Z,2.20
2019-05-06T02:36:45.401Z,2.20
2019-05-06T02:38:54.790Z,2.21
2019-05-06T02:40:58.895Z,2.18
2019-05-06T02:43:05.340Z,2.16
2019-05-06T02:45:12.726Z,2.14
2019-05-06T02:47:23.072Z,2.12
2019-05-06T02:49:36.478Z,2.11
2019-05-06T02:51:44.202Z,2.11
2019-05-06T02:53:53.792Z,2.13
2019-05-06T02:55:59.062Z,2.13
2019-05-06T02:58:06.529Z,2.15
2019-05-06T03:00:18.158Z,2.15
2019-05-06T03:02:37.963Z,2.16
2019-05-06T03:04:33.384Z,2.17
2019-05-06T03:06:40.076Z,2.19
2019-05-06T03:08:46.438Z,2.22
2019-05-06T03:10:53.570Z,2.24
2019-05-06T03:13:02.886Z,2.25
2019-05-06T03:15:08.749Z,2.29
2019-05-06T03:17:15.146Z,2.31
2019-05-06T03:19:24.072Z,2.37
2019-05-06T03:21:46.741Z,2.41
2019-05-06T03:23:54.784Z,2.48
2019-05-06T03:26:03.751Z,2.53
2019-05-06T03:28:09.648Z,2.58
2019-05-06T03:30:17.145Z,2.64
2019-05-06T03:32:30.341Z,2.70
2019-05-06T03:34:55.259Z,2.76
2019-05-06T03:36:47.390Z,2.86
2019-05-06T03:38:48.310Z,2.90
2019-05-06T03:40:54.689Z,2.94
2019-05-06T03:43:02.794Z,3.03
2019-05-06T03:45:13.136Z,3.12
2019-05-06T03:47:23.467Z,3.21
2019-05-06T03:49:33.820Z,3.35
2019-05-06T03:51:42.758Z,3.47
2019-05-06T03:53:48.348Z,3.54
2019-05-06T03:55:56.663Z,3.67
2019-05-06T03:58:04.400Z,3.71
2019-05-06T04:00:15.982Z,3.69
2019-05-06T04:02:24.050Z,3.75
2019-05-06T04:04:33.103Z,3.78
2019-05-06T04:06:43.599Z,3.77
2019-05-06T04:08:52.857Z,3.78
2019-05-06T04:11:02.960Z,3.79
2019-05-06T04:13:13.497Z,3.79
2019-05-06T04:15:19.330Z,3.83
2019-05-06T04:17:37.301Z,3.90
2019-05-06T04:19:53.467Z,3.93
2019-05-06T04:22:23.382Z,3.94
2019-05-06T04:24:53.939Z,3.96
2019-05-06T04:27:34.757Z,4.01
2019-05-06T04:29:42.868Z,4.02
2019-05-06T04:31:53.698Z,4.04
2019-05-06T04:34:09.889Z,4.01
2019-05-06T04:36:07.399Z,3.99
2019-05-06T04:38:14.285Z,4.01
2019-05-06T04:40:23.895Z,4.07
2019-05-06T04:42:30.405Z,4.02
2019-05-06T04:44:37.950Z,4.02
2019-05-06T04:46:44.660Z,4.03
2019-05-06T04:48:53.606Z,4.07
2019-05-06T04:50:59.356Z,4.12
2019-05-06T04:53:06.105Z,4.16
2019-05-06T04:55:14.219Z,4.20
2019-05-06T04:57:23.872Z,4.29
2019-05-06T04:59:29.352Z,4.38
2019-05-06T05:01:35.871Z,4.34
2019-05-06T05:03:42.865Z,4.31
2019-05-06T05:05:49.519Z,4.34
2019-05-06T05:07:56.097Z,4.37
2019-05-06T05:10:07.684Z,4.41
2019-05-06T05:12:19.702Z,4.38
2019-05-06T05:14:33.704Z,4.37
2019-05-06T05:16:42.157Z,4.37
2019-05-06T05:18:50.437Z,4.46
2019-05-06T05:20:57.011Z,4.61
2019-05-06T05:23:03.477Z,4.66
2019-05-06T05:25:12.229Z,4.73
2019-05-06T05:27:18.722Z,4.76
2019-05-06T05:29:25.250Z,4.82
2019-05-06T05:31:33.236Z,4.89
2019-05-06T05:33:42.153Z,5.00
2019-05-06T05:35:47.955Z,5.08
2019-05-06T05:37:54.668Z,5.14
2019-05-06T05:40:03.027Z,5.19
2019-05-06T05:42:12.359Z,5.35
2019-05-06T05:44:22.645Z,5.47
2019-05-06T05:46:28.736Z,5.45
2019-05-06T05:48:48.523Z,5.48
2019-05-06T05:50:55.482Z,5.60
2019-05-06T05:53:03.067Z,5.54
2019-05-06T05:55:09.655Z,5.62
2019-05-06T05:57:17.579Z,5.62
2019-05-06T05:59:25.169Z,5.84
2019-05-06T06:01:32.621Z,5.88
2019-05-06T06:03:39.358Z,6.00
2019-05-06T06:05:45.810Z,5.98
2019-05-06T06:07:53.063Z,5.95
2019-05-06T06:10:02.674Z,6.13
2019-05-06T06:12:12.036Z,6.15
2019-05-06T06:14:33.234Z,6.31
2019-05-06T06:16:42.277Z,6.58
2019-05-06T06:19:07.123Z,6.61
2019-05-06T06:21:21.992Z,6.44
2019-05-06T06:23:26.096Z,6.67
2019-05-06T06:25:33.574Z,6.77
2019-05-06T06:27:52.310Z,7.18
2019-05-06T06:29:58.930Z,7.49
2019-05-06T06:32:22.999Z,7.74
2019-05-06T06:34:42.560Z,7.90
2019-05-06T06:37:02.696Z,8.08
2019-05-06T06:39:16.825Z,8.02
2019-05-06T06:41:23.344Z,8.11
2019-05-06T06:43:29.830Z,8.14
2019-05-06T06:45:36.678Z,7.81
2019-05-06T06:47:43.074Z,8.07
2019-05-06T06:49:49.543Z,8.35
2019-05-06T06:51:55.913Z,8.91
2019-05-06T06:54:02.651Z,11.19
2019-05-06T06:56:21.898Z,13.88
2019-05-06T06:58:32.327Z,15.16
2019-05-06T07:00:38.554Z,15.56
2019-05-06T07:02:49.745Z,16.72
2019-05-06T07:05:02.387Z,18.18
2019-05-06T07:07:09.259Z,19.32
2019-05-06T07:09:15.737Z,19.88
2019-05-06T07:11:22.613Z,20.94
2019-05-06T07:13:29.075Z,21.56
2019-05-06T07:15:35.506Z,20.45
2019-05-06T07:17:42.107Z,20.86
2019-05-06T07:19:50.146Z,21.25
2019-05-06T07:21:58.400Z,21.05
2019-05-06T07:24:04.870Z,20.64
2019-05-06T07:26:13.967Z,20.11
2019-05-06T07:28:22.345Z,21.43
2019-05-06T07:30:32.934Z,21.78
2019-05-06T07:32:39.387Z,20.44
2019-05-06T07:34:45.798Z,19.42
2019-05-06T07:36:52.654Z,19.65
2019-05-06T07:38:59.173Z,20.15
2019-05-06T07:41:14.447Z,19.06
2019-05-06T07:43:36.412Z,17.46
2019-05-06T07:45:47.124Z,17.41
2019-05-06T07:47:55.249Z,16.89
2019-05-06T07:50:02.392Z,17.48
2019-05-06T07:52:09.204Z,17.48
2019-05-06T07:54:15.598Z,16.93
2019-05-06T07:56:22.577Z,16.73
2019-05-06T07:58:29.181Z,15.78
2019-05-06T08:00:36.102Z,14.91
2019-05-06T08:02:42.635Z,14.05
2019-05-06T08:04:49.112Z,14.13
2019-05-06T08:06:55.523Z,13.95
2019-05-06T08:09:03.189Z,14.03
2019-05-06T08:11:12.362Z,13.76
2019-05-06T08:13:19.196Z,13.69
2019-05-06T08:15:25.646Z,13.52
2019-05-06T08:17:33.831Z,13.51
2019-05-06T08:19:42.268Z,13.52
2019-05-06T08:21:52.062Z,13.54
2019-05-06T08:23:58.528Z,13.62
2019-05-06T08:26:12.467Z,13.32
2019-05-06T08:28:13.416Z,13.18
2019-05-06T08:30:20.109Z,13.25
2019-05-06T08:32:26.581Z,13.38
2019-05-06T08:34:34.161Z,13.54
2019-05-06T08:36:42.595Z,13.50
2019-05-06T08:38:58.809Z,13.44
2019-05-06T08:41:05.367Z,13.30
2019-05-06T08:43:13.681Z,13.60
2019-05-06T08:45:21.968Z,13.62
2019-05-06T08:47:28.366Z,13.26
2019-05-06T08:49:36.381Z,13.25
2019-05-06T08:52:02.590Z,13.00
2019-05-06T08:54:22.566Z,12.89
2019-05-06T08:56:28.386Z,12.59
2019-05-06T08:58:47.365Z,12.58
2019-05-06T09:01:03.074Z,12.84
2019-05-06T09:03:09.384Z,12.96
2019-05-06T09:05:15.871Z,13.08
2019-05-06T09:07:23.911Z,12.83
2019-05-06T09:09:32.488Z,13.03
2019-05-06T09:11:39.290Z,13.10
2019-05-06T09:13:45.672Z,13.24
2019-05-06T09:15:52.966Z,13.41
2019-05-06T09:17:59.370Z,13.67
2019-05-06T09:20:07.167Z,14.04
2019-05-06T09:22:13.627Z,14.32
2019-05-06T09:24:20.101Z,14.27
2019-05-06T09:26:43.283Z,14.36
2019-05-06T09:28:53.107Z,14.50
2019-05-06T09:31:02.245Z,14.19
2019-05-06T09:33:09.327Z,14.39
2019-05-06T09:35:15.788Z,14.94
2019-05-06T09:37:24.079Z,14.96
2019-05-06T09:39:32.240Z,14.61
2019-05-06T09:41:39.222Z,14.56
2019-05-06T09:43:45.682Z,14.80
2019-05-06T09:45:52.945Z,15.24
2019-05-06T09:48:05.451Z,15.48
2019-05-06T09:50:14.652Z,15.39
2019-05-06T09:52:23.193Z,14.57
2019-05-06T09:54:33.693Z,14.42
2019-05-06T09:56:42.772Z,14.56
2019-05-06T09:58:49.408Z,14.38
2019-05-06T10:00:57.451Z,14.37
2019-05-06T10:03:04.577Z,14.22
2019-05-06T10:05:12.010Z,13.76
2019-05-06T10:07:18.543Z,13.61
2019-05-06T10:09:25.147Z,13.68
2019-05-06T10:11:32.853Z,13.66
2019-05-06T10:13:39.552Z,13.84
2019-05-06T10:15:46.049Z,14.06
2019-05-06T10:18:08.133Z,14.18
2019-05-06T10:20:16.081Z,14.25
2019-05-06T10:22:23.344Z,14.25
2019-05-06T10:24:32.254Z,14.38
2019-05-06T10:26:39.730Z,14.39
2019-05-06T10:28:47.911Z,14.10
2019-05-06T10:30:54.425Z,14.00
2019-05-06T10:33:02.472Z,14.11
2019-05-06T10:35:09.902Z,14.38
2019-05-06T10:37:25.683Z,14.13
2019-05-06T10:39:36.646Z,14.06
2019-05-06T10:41:47.657Z,13.97
2019-05-06T10:44:02.969Z,14.07
2019-05-06T10:46:09.629Z,14.37
2019-05-06T10:48:16.114Z,14.53
2019-05-06T10:50:22.996Z,14.28
2019-05-06T10:52:33.212Z,14.38
2019-05-06T10:54:39.261Z,14.59
2019-05-06T10:56:54.602Z,14.98
2019-05-06T10:59:02.282Z,15.04
2019-05-06T11:01:12.771Z,15.07
2019-05-06T11:03:23.778Z,14.64
2019-05-06T11:05:32.398Z,14.41
2019-05-06T11:07:38.359Z,14.55
2019-05-06T11:09:44.781Z,14.74
2019-05-06T11:11:51.155Z,14.35
2019-05-06T11:13:57.567Z,14.50
2019-05-06T11:16:04.083Z,14.38
2019-05-06T11:18:13.264Z,14.36
2019-05-06T11:20:19.018Z,14.31
2019-05-06T11:22:25.388Z,14.30
2019-05-06T11:24:32.627Z,14.35
2019-05-06T11:26:39.275Z,14.42
2019-05-06T11:28:47.362Z,14.58
2019-05-06T11:30:56.420Z,14.79
2019-05-06T11:33:04.776Z,14.80
2019-05-06T11:35:13.252Z,14.54
2019-05-06T11:37:24.033Z,14.33
2019-05-06T11:39:32.139Z,14.17
2019-05-06T11:41:38.756Z,14.39
2019-05-06T11:43:45.221Z,14.65
2019-05-06T11:45:52.130Z,14.90
2019-05-06T11:47:58.950Z,14.88
2019-05-06T11:50:09.306Z,15.08
2019-05-06T11:52:16.785Z,15.01
2019-05-06T11:54:24.508Z,15.07
2019-05-06T11:56:32.701Z,15.00
2019-05-06T11:58:48.039Z,14.82
2019-05-06T12:00:54.274Z,14.80
2019-05-06T12:03:02.352Z,14.85
2019-05-06T12:05:09.259Z,14.76
2019-05-06T12:07:16.281Z,14.80
2019-05-06T12:09:23.970Z,14.83
2019-05-06T12:11:30.378Z,14.73
2019-05-06T12:13:38.248Z,14.67
2019-05-06T12:15:44.819Z,14.64
2019-05-06T12:17:53.304Z,14.78
2019-05-06T12:19:59.297Z,15.12
2019-05-06T12:22:05.677Z,15.32
2019-05-06T12:24:12.314Z,15.45
2019-05-06T12:26:20.290Z,14.97
2019-05-06T12:28:26.665Z,14.83
2019-05-06T12:30:33.073Z,14.79
2019-05-06T12:32:43.176Z,15.21
2019-05-06T12:34:49.270Z,15.43
2019-05-06T12:36:57.316Z,15.44
2019-05-06T12:39:18.413Z,15.48
2019-05-06T12:41:23.993Z,15.60
2019-05-06T12:43:30.173Z,15.82
2019-05-06T12:45:38.274Z,15.66
2019-05-06T12:47:46.367Z,15.57
2019-05-06T12:49:53.325Z,15.35
2019-05-06T12:52:00.081Z,15.07
2019-05-06T12:54:06.488Z,15.19
2019-05-06T12:56:13.039Z,15.19
2019-05-06T12:58:21.068Z,15.22
2019-05-06T13:00:29.416Z,15.27
2019-05-06T13:02:36.047Z,15.31
2019-05-06T13:04:51.332Z,15.29
2019-05-06T13:06:52.215Z,15.43
2019-05-06T13:09:04.154Z,15.67
2019-05-06T13:11:08.630Z,15.94
2019-05-06T13:13:15.015Z,16.03
2019-05-06T13:15:24.482Z,16.12
2019-05-06T13:17:32.897Z,16.34
2019-05-06T13:19:39.392Z,16.49
2019-05-06T13:21:45.865Z,16.65
2019-05-06T13:24:04.661Z,16.52
2019-05-06T13:26:12.670Z,16.39
2019-05-06T13:28:22.458Z,16.38
2019-05-06T13:30:28.629Z,16.49
2019-05-06T13:32:36.644Z,16.59
2019-05-06T13:34:43.126Z,16.36
2019-05-06T13:36:53.027Z,16.35
2019-05-06T13:39:13.479Z,16.18
2019-05-06T13:41:06.451Z,16.02
2019-05-06T13:43:13.219Z,15.80
2019-05-06T13:45:22.037Z,15.82
2019-05-06T13:47:32.151Z,15.74
2019-05-06T13:49:42.998Z,15.69
2019-05-06T13:52:04.520Z,15.63
2019-05-06T13:54:15.780Z,15.59
2019-05-06T13:56:20.269Z,15.57
2019-05-06T13:58:27.442Z,15.47
2019-05-06T14:00:35.722Z,15.28
2019-05-06T14:02:44.011Z,15.21
2019-05-06T14:04:52.721Z,15.31
2019-05-06T14:06:58.765Z,15.31
2019-05-06T14:09:27.185Z,15.25
2019-05-06T14:11:18.737Z,15.24
2019-05-06T14:13:25.155Z,15.25
2019-05-06T14:15:32.644Z,15.17
2019-05-06T14:17:39.056Z,15.31
2019-05-06T14:19:45.472Z,15.33
2019-05-06T14:21:52.422Z,15.29
2019-05-06T14:23:59.052Z,15.29
2019-05-06T14:26:20.109Z,15.21
2019-05-06T14:28:39.984Z,15.25
2019-05-06T14:30:53.749Z,15.34
2019-05-06T14:33:00.162Z,15.33
2019-05-06T14:35:07.830Z,15.29
2019-05-06T14:37:14.283Z,15.01
2019-05-06T14:39:24.865Z,14.89
2019-05-06T14:41:38.008Z,15.03
2019-05-06T14:43:44.408Z,15.02
2019-05-06T14:45:52.801Z,14.96
2019-05-06T14:47:58.907Z,14.82
2019-05-06T14:50:08.249Z,14.96
2019-05-06T14:52:14.728Z,14.92
2019-05-06T14:54:22.120Z,14.86
2019-05-06T14:56:33.229Z,14.95
2019-05-06T14:58:39.697Z,14.94
2019-05-06T15:00:46.085Z,14.84
2019-05-06T15:02:53.301Z,14.82
2019-05-06T15:05:02.737Z,14.84
2019-05-06T15:07:09.448Z,14.92
2019-05-06T15:09:15.895Z,14.95
2019-05-06T15:11:22.823Z,14.82
2019-05-06T15:13:32.003Z,14.65
2019-05-06T15:15:37.763Z,14.55
2019-05-06T15:17:44.244Z,14.58
2019-05-06T15:19:52.563Z,14.58
2019-05-06T15:21:58.874Z,14.58
2019-05-06T15:24:05.427Z,14.63
2019-05-06T15:26:12.331Z,14.68
2019-05-06T15:28:22.600Z,14.73
2019-05-06T15:30:39.580Z,14.73
2019-05-06T15:32:45.970Z,14.73
2019-05-06T15:34:59.713Z,14.55
2019-05-06T15:37:12.979Z,14.45
2019-05-06T15:39:19.041Z,14.44
2019-05-06T15:41:25.438Z,14.49
2019-05-06T15:43:33.358Z,14.48
2019-05-06T15:45:39.802Z,14.48
2019-05-06T15:47:49.168Z,14.50
2019-05-06T15:49:55.758Z,14.46
2019-05-06T15:52:03.603Z,14.44
2019-05-06T15:54:10.475Z,14.30
2019-05-06T15:56:16.876Z,14.31
2019-05-06T15:58:23.337Z,14.30
2019-05-06T16:00:29.798Z,14.35
2019-05-06T16:02:36.267Z,14.32
2019-05-06T16:04:43.051Z,14.31
2019-05-06T16:06:49.431Z,14.26
2019-05-06T16:08:55.979Z,14.19
2019-05-06T16:11:02.970Z,14.10
2019-05-06T16:13:09.633Z,14.03
2019-05-06T16:15:16.409Z,13.91
2019-05-06T16:17:23.850Z,13.81
2019-05-06T16:19:33.061Z,13.72
2019-05-06T16:21:42.162Z,13.65
2019-05-06T16:23:54.707Z,13.59
2019-05-06T16:25:59.463Z,13.58
2019-05-06T16:28:05.927Z,13.53
2019-05-06T16:30:15.205Z,13.48
2019-05-06T16:32:22.075Z,13.42
2019-05-06T16:34:28.498Z,13.38
2019-05-06T16:36:34.950Z,13.35
2019-05-06T16:38:42.819Z,13.32
2019-05-06T16:40:49.380Z,13.28
2019-05-06T16:42:55.921Z,13.23
2019-05-06T16:45:06.781Z,13.19
2019-05-06T16:47:12.337Z,13.17
2019-05-06T16:49:18.792Z,13.12
2019-05-06T16:51:25.171Z,13.11
2019-05-06T16:53:34.821Z,13.08
2019-05-06T16:55:44.065Z,13.06
2019-05-06T16:57:58.067Z,13.03
2019-05-06T17:00:08.919Z,12.99
2019-05-06T17:02:17.005Z,12.96
2019-05-06T17:04:23.324Z,12.92
2019-05-06T17:06:32.963Z,12.87
2019-05-06T17:08:39.566Z,12.85
2019-05-06T17:10:46.169Z,12.83
2019-05-06T17:12:53.680Z,12.82
2019-05-06T17:15:00.410Z,12.77
2019-05-06T17:17:06.807Z,12.73
2019-05-06T17:19:13.370Z,12.66
2019-05-06T17:21:22.265Z,12.65
2019-05-06T17:23:29.076Z,12.62
2019-05-06T17:25:35.668Z,12.58
2019-05-06T17:27:43.501Z,12.54
2019-05-06T17:29:51.686Z,12.47
2019-05-06T17:31:59.746Z,12.43
2019-05-06T17:34:14.123Z,12.39
2019-05-06T17:36:26.524Z,12.35
2019-05-06T17:38:35.183Z,12.32
2019-05-06T17:40:42.884Z,12.29
2019-05-06T17:42:49.516Z,12.26
2019-05-06T17:44:55.927Z,12.24
2019-05-06T17:47:16.471Z,12.19
2019-05-06T17:49:27.766Z,12.16
2019-05-06T17:51:42.555Z,12.12
2019-05-06T17:53:53.769Z,12.09
2019-05-06T17:56:01.825Z,12.06
2019-05-06T17:58:08.417Z,12.04
2019-05-06T18:00:16.778Z,12.01
2019-05-06T18:02:25.073Z,11.98
2019-05-06T18:04:34.447Z,11.96
2019-05-06T18:06:42.389Z,11.95
2019-05-06T18:08:48.862Z,11.92
2019-05-06T18:10:55.425Z,11.90
2019-05-06T18:13:03.157Z,11.88
2019-05-06T18:15:10.091Z,11.85
2019-05-06T18:17:16.575Z,11.82
2019-05-06T18:19:23.024Z,11.80
2019-05-06T18:21:29.481Z,11.78
2019-05-06T18:23:35.956Z,11.74
2019-05-06T18:25:43.050Z,11.72
2019-05-06T18:27:49.797Z,11.71
2019-05-06T18:30:04.337Z,11.68
2019-05-06T18:32:04.439Z,11.66
2019-05-06T18:34:12.835Z,11.63
2019-05-06T18:36:19.747Z,11.61
2019-05-06T18:38:26.301Z,11.60
2019-05-06T18:40:33.335Z,11.58
2019-05-06T18:42:39.816Z,11.56
2019-05-06T18:44:46.215Z,11.55
2019-05-06T18:46:54.130Z,11.53
2019-05-06T18:49:02.552Z,11.50
2019-05-06T18:51:08.977Z,11.49
2019-05-06T18:53:18.078Z,11.45
2019-05-06T18:55:24.549Z,11.41
2019-05-06T18:57:32.798Z,11.35
2019-05-06T18:59:39.280Z,11.32
2019-05-06T19:01:45.628Z,11.30
2019-05-06T19:03:53.733Z,11.26
2019-05-06T19:06:02.192Z,11.22
2019-05-06T19:08:12.323Z,11.20
2019-05-06T19:10:34.717Z,11.18
2019-05-06T19:12:41.730Z,11.13
2019-05-06T19:14:48.302Z,11.13
2019-05-06T19:16:55.417Z,11.08
2019-05-06T19:19:05.804Z,11.07
2019-05-06T19:21:13.279Z,11.04
2019-05-06T19:23:19.278Z,11.02
2019-05-06T19:25:26.575Z,10.99
2019-05-06T19:27:33.677Z,10.96
2019-05-06T19:29:40.246Z,10.92
2019-05-06T19:31:46.626Z,10.89
2019-05-06T19:33:53.043Z,10.83
2019-05-06T19:35:59.498Z,10.78
2019-05-06T19:38:07.043Z,10.74
2019-05-06T19:40:14.142Z,10.71
2019-05-06T19:42:22.551Z,10.68
2019-05-06T19:44:29.249Z,10.66
2019-05-06T19:46:37.269Z,10.63
2019-05-06T19:48:43.793Z,10.63
2019-05-06T19:50:52.237Z,10.61
2019-05-06T19:52:58.377Z,10.59
2019-05-06T19:55:07.006Z,10.55
2019-05-06T19:57:15.929Z,10.52
2019-05-06T19:59:22.974Z,10.50
2019-05-06T20:01:29.437Z,10.46
2019-05-06T20:03:36.097Z,10.43
2019-05-06T20:05:54.218Z,10.41
2019-05-06T20:08:12.379Z,10.40
2019-05-06T20:10:37.770Z,10.39
2019-05-06T20:12:58.488Z,10.37
2019-05-06T20:14:52.565Z,10.33
2019-05-06T20:16:59.096Z,10.33
2019-05-06T20:19:05.914Z,10.30
2019-05-06T20:21:12.368Z,10.27
2019-05-06T20:23:18.763Z,10.26
2019-05-06T20:25:26.635Z,10.25
2019-05-06T20:27:33.011Z,10.23
2019-05-06T20:29:39.475Z,10.21
2019-05-06T20:31:48.682Z,10.20
2019-05-06T20:33:55.140Z,10.19
2019-05-06T20:36:01.527Z,10.18
2019-05-06T20:38:08.025Z,10.16
2019-05-06T20:40:14.905Z,10.14
2019-05-06T20:42:22.258Z,10.14
2019-05-06T20:44:28.668Z,10.12
2019-05-06T20:46:35.068Z,10.12
2019-05-06T20:48:42.197Z,10.09
2019-05-06T20:50:48.760Z,10.09
2019-05-06T20:52:55.151Z,10.07
2019-05-06T20:55:02.928Z,10.05
2019-05-06T20:57:09.599Z,10.04
2019-05-06T20:59:15.987Z,10.05
2019-05-06T21:01:22.386Z,10.04
2019-05-06T21:03:28.814Z,10.02
2019-05-06T21:05:35.204Z,10.01
2019-05-06T21:07:43.242Z,10.00
2019-05-06T21:09:49.801Z,10.01
2019-05-06T21:11:56.422Z,10.03
2019-05-06T21:14:03.134Z,10.03
2019-05-06T21:16:09.562Z,10.01
2019-05-06T21:18:15.940Z,9.99
2019-05-06T21:20:22.399Z,9.96
2019-05-06T21:22:28.940Z,9.93
2019-05-06T21:24:38.804Z,9.91
2019-05-06T21:26:46.454Z,9.91
2019-05-06T21:28:53.195Z,9.87
2019-05-06T21:30:59.637Z,9.86
2019-05-06T21:33:06.027Z,9.83
2019-05-06T21:35:12.748Z,9.84
2019-05-06T21:37:19.129Z,9.85
2019-05-06T21:39:25.659Z,9.85
2019-05-06T21:41:32.723Z,9.81
2019-05-06T21:43:46.960Z,9.78
2019-05-06T21:45:47.490Z,9.74
2019-05-06T21:47:53.924Z,9.67
2019-05-06T21:50:00.304Z,9.62
2019-05-06T21:52:06.812Z,9.57
2019-05-06T21:54:13.289Z,9.56
2019-05-06T21:56:19.663Z,9.53
2019-05-06T21:58:26.052Z,9.49
2019-05-06T22:00:49.469Z,9.46
2019-05-06T22:02:56.196Z,9.41
2019-05-06T22:05:02.883Z,9.36
2019-05-06T22:07:09.430Z,9.31
2019-05-06T22:09:15.988Z,9.27
2019-05-06T22:11:24.363Z,9.26
2019-05-06T22:13:32.542Z,9.24
2019-05-06T22:15:38.974Z,9.21
2019-05-06T22:17:45.428Z,9.19
2019-05-06T22:19:52.459Z,9.18
2019-05-06T22:22:03.554Z,9.17
2019-05-06T22:24:12.061Z,9.18
2019-05-06T22:26:18.198Z,9.16
2019-05-06T22:28:24.652Z,9.13
2019-05-06T22:30:32.849Z,9.15
2019-05-06T22:32:46.589Z,9.14
2019-05-06T22:34:53.101Z,9.13
2019-05-06T22:36:59.548Z,9.12
2019-05-06T22:39:07.679Z,9.12
2019-05-06T22:41:15.735Z,9.12
2019-05-06T22:43:22.180Z,9.10
2019-05-06T22:45:28.660Z,9.11
2019-05-06T22:47:35.051Z,9.13
2019-05-06T22:49:41.450Z,9.11
2019-05-06T22:51:47.866Z,9.11
2019-05-06T22:53:54.395Z,9.11
2019-05-06T22:56:03.153Z,9.09
2019-05-06T22:58:11.966Z,9.07
2019-05-06T23:00:25.734Z,9.04
2019-05-06T23:02:45.964Z,9.03
2019-05-06T23:04:54.032Z,9.00
2019-05-06T23:07:04.447Z,8.99
2019-05-06T23:09:10.265Z,8.98
2019-05-06T23:11:16.838Z,8.98
2019-05-06T23:13:23.406Z,8.97
2019-05-06T23:15:29.972Z,8.92
2019-05-06T23:17:36.375Z,8.90
2019-05-06T23:19:42.981Z,8.88
2019-05-06T23:21:49.418Z,8.85
2019-05-06T23:23:55.827Z,8.82
2019-05-06T23:26:19.072Z,8.79
2019-05-06T23:28:25.520Z,8.77
2019-05-06T23:30:33.402Z,8.75
2019-05-06T23:32:42.086Z,8.72
2019-05-06T23:34:48.186Z,8.70
2019-05-06T23:37:02.810Z,8.69
2019-05-06T23:40:05.891Z,8.68
2019-05-06T23:43:08.164Z,8.66
2019-05-06T23:46:09.202Z,8.65
2019-05-06T23:49:12.996Z,8.62
2019-05-06T23:52:13.901Z,8.59
2019-05-06T23:55:14.717Z,8.58
2019-05-06T23:57:22.567Z,8.55
2019-05-06T23:59:28.563Z,8.51
